»·PEaware :: N101WS KSBA-KOXR

N101WS :: KSBA-KOXR

FLIGHT INFORMATION

Flight Status: Arrived
Operator: Privately registered:
United States
More flights under this callsign
Pilot: Mark K. (33451)
Aircraft: CESSNA 172 SKYHAWK
(C172)
More flights by this aircraft type
Origin: KSBA Santa Barbara Mun
United States
Destination: KOXR Oxnard
United States
More flights between these airports :: More routes between these airports
Route: KWANG CMA
File this flight plan on PilotEdge
Remarks:
Altitude:
(Current/Filed)
3,000ft
Speed:
(Current/Filed)
105kts
Departed: 12-Feb-21 10:36 PM
Arrived: 12-Feb-21 11:37 PM
Distance/Time
Traveled:
34nm/1:00
Distance/Time
To Go:
Arrived

Flight Plot

Page will automatically refresh every two minutes.


Map Options




Map Legend


Flown Route
Filed Route
Departure Airport
Arrival Airport
Navaid (VOR, NDB)
Fix

Horizontal Profiles

Position Reports

Time Latitude Longitude Heading Altitude Ground
Speed
12-Feb-21 22:19 34.432569 -119.835085 71 14ft 0kts
12-Feb-21 22:20 34.432569 -119.835085 71 14ft 0kts
12-Feb-21 22:21 34.432569 -119.835085 71 14ft 0kts
12-Feb-21 22:23 34.432569 -119.835085 71 14ft 0kts
12-Feb-21 22:24 34.432569 -119.835085 71 14ft 0kts
12-Feb-21 22:25 34.432569 -119.835085 71 14ft 0kts
12-Feb-21 22:26 34.432569 -119.835085 71 14ft 0kts
12-Feb-21 22:27 34.432569 -119.835085 71 14ft 0kts
12-Feb-21 22:28 34.432569 -119.835085 71 14ft 0kts
12-Feb-21 22:29 34.432569 -119.835085 71 14ft 0kts
12-Feb-21 22:30 34.432569 -119.835085 71 14ft 0kts
12-Feb-21 22:31 34.432577 -119.835056 70 14ft 2kts
12-Feb-21 22:32 34.432412 -119.834470 253 14ft 9kts
12-Feb-21 22:33 34.428876 -119.834535 170 10ft 11kts
12-Feb-21 22:34 34.428817 -119.834525 173 10ft 0kts
12-Feb-21 22:35 34.428733 -119.834523 184 10ft 6kts
12-Feb-21 22:36 34.428074 -119.851780 272 435ft 85kts
12-Feb-21 22:37 34.423151 -119.880387 228 1486ft 91kts
12-Feb-21 22:38 34.412179 -119.861696 83 2421ft 90kts
12-Feb-21 22:39 34.404841 -119.832225 113 3004ft 114kts
12-Feb-21 22:39 34.394561 -119.801168 109 3010ft 121kts
12-Feb-21 22:41 34.380143 -119.756396 109 2999ft 122kts
12-Feb-21 22:41 34.369870 -119.724478 109 2991ft 122kts
12-Feb-21 22:42 34.357542 -119.686156 109 2981ft 122kts
12-Feb-21 22:44 34.343165 -119.641439 109 2969ft 122kts
12-Feb-21 22:44 34.332868 -119.609394 109 2960ft 122kts
12-Feb-21 22:46 34.318538 -119.564776 109 2949ft 122kts
12-Feb-21 22:46 34.308339 -119.533028 109 2993ft 120kts
12-Feb-21 22:47 34.298532 -119.494060 101 2988ft 122kts
12-Feb-21 22:48 34.290758 -119.453983 101 2978ft 122kts
12-Feb-21 22:49 34.283005 -119.413991 101 2968ft 122kts
12-Feb-21 22:50 34.275260 -119.374001 101 2958ft 122kts
12-Feb-21 22:51 34.267574 -119.334333 101 3002ft 121kts
12-Feb-21 22:52 34.259853 -119.294413 101 2992ft 122kts
12-Feb-21 22:53 34.252104 -119.254304 101 2982ft 122kts
12-Feb-21 22:54 34.244374 -119.214262 101 2972ft 122kts
12-Feb-21 22:55 34.236707 -119.174511 101 2962ft 122kts
12-Feb-21 22:56 34.227337 -119.134909 106 2948ft 122kts
12-Feb-21 22:57 34.211120 -119.101872 163 3050ft 119kts
12-Feb-21 22:58 34.191206 -119.126860 279 2957ft 124kts
12-Feb-21 22:59 34.200830 -119.164368 287 2382ft 105kts
12-Feb-21 23:00 34.200435 -119.197416 258 1614ft 90kts
12-Feb-21 23:01 34.195095 -119.228711 258 1442ft 108kts
12-Feb-21 23:02 34.190341 -119.265639 259 1934ft 111kts
12-Feb-21 23:03 34.185834 -119.301266 260 1999ft 100kts
12-Feb-21 23:04 34.181782 -119.334152 264 1989ft 98kts
12-Feb-21 23:05 34.183968 -119.366844 272 1982ft 97kts
12-Feb-21 23:06 34.185198 -119.399607 271 1978ft 97kts
12-Feb-21 23:07 34.175922 -119.428274 229 1984ft 96kts
12-Feb-21 23:08 34.172513 -119.455418 331 1937ft 99kts
12-Feb-21 23:09 34.188190 -119.435920 88 1886ft 99kts
12-Feb-21 23:10 34.185798 -119.403694 100 1970ft 92kts
12-Feb-21 23:11 34.168326 -119.405964 257 2104ft 90kts
12-Feb-21 23:12 34.169326 -119.436118 318 2059ft 103kts
12-Feb-21 23:13 34.188515 -119.420840 79 1811ft 105kts
12-Feb-21 23:14 34.185133 -119.388617 153 1662ft 99kts
12-Feb-21 23:15 34.169777 -119.407430 256 1807ft 90kts
12-Feb-21 23:16 34.165953 -119.436753 291 1984ft 89kts
12-Feb-21 23:17 34.183805 -119.430816 78 2004ft 95kts
12-Feb-21 23:18 34.187903 -119.398699 80 2006ft 97kts
12-Feb-21 23:19 34.192965 -119.366423 64 2066ft 104kts
12-Feb-21 23:20 34.204844 -119.333238 65 2665ft 106kts
12-Feb-21 23:21 34.216033 -119.300378 65 3351ft 105kts
12-Feb-21 23:22 34.227065 -119.267819 65 4037ft 104kts
12-Feb-21 23:23 34.239484 -119.230987 66 4033ft 122kts
12-Feb-21 23:24 34.252379 -119.192795 66 4033ft 122kts
12-Feb-21 23:25 34.265248 -119.154694 66 4033ft 122kts
12-Feb-21 23:26 34.278096 -119.116612 66 4033ft 122kts
12-Feb-21 23:27 34.290762 -119.078320 75 4023ft 123kts
12-Feb-21 23:28 34.269054 -119.049212 155 3594ft 131kts
12-Feb-21 23:29 34.235393 -119.031917 155 3086ft 131kts
12-Feb-21 23:30 34.201846 -119.026800 219 2795ft 121kts
12-Feb-21 23:31 34.206680 -119.063490 317 2257ft 131kts
12-Feb-21 23:32 34.207371 -119.105722 256 1771ft 131kts
12-Feb-21 23:33 34.203251 -119.149429 273 1251ft 131kts
12-Feb-21 23:34 34.201247 -119.185446 261 701ft 91kts
12-Feb-21 23:35 34.200744 -119.212050 269 40ft 59kts
12-Feb-21 23:36 34.199920 -119.216822 139 30ft 10kts
12-Feb-21 23:37 34.199772 -119.215605 85 32ft 0kts
12-Feb-21 23:38 34.199772 -119.215605 85 32ft 0kts
12-Feb-21 23:39 34.199772 -119.215605 85 32ft 0kts
12-Feb-21 23:40 34.199772 -119.215605 85 32ft 0kts
12-Feb-21 23:41 34.199772 -119.215605 85 32ft 0kts
12-Feb-21 23:42 34.199772 -119.215605 85 32ft 0kts
12-Feb-21 23:43 34.199772 -119.215605 85 32ft 0kts
12-Feb-21 23:44 34.199772 -119.215605 85 32ft 0kts
12-Feb-21 23:45 34.199772 -119.215605 85 32ft 0kts
12-Feb-21 23:46 34.199772 -119.215605 85 32ft 0kts
12-Feb-21 23:47 34.199772 -119.215605 85 32ft 0kts
12-Feb-21 23:48 34.199772 -119.215605 85 32ft 0kts
12-Feb-21 23:49 34.199772 -119.215605 85 32ft 0kts
12-Feb-21 23:50 34.199772 -119.215605 85 32ft 0kts

Navigation Log

Ident Type
Flight plan parsing failed, navigation log unavailable